createdAt,value
2017-06-22T00:03:58.826Z,1007.56
2017-06-22T00:08:55.561Z,1007.56
2017-06-22T00:13:52.065Z,1007.45
2017-06-22T00:18:47.770Z,1007.35
2017-06-22T00:23:43.960Z,1007.26
2017-06-22T00:28:39.720Z,1007.20
2017-06-22T00:33:36.627Z,1007.12
2017-06-22T00:38:33.164Z,1007.09
2017-06-22T00:43:28.736Z,1007.22
2017-06-22T00:48:24.550Z,1007.35
2017-06-22T00:53:20.450Z,1007.37
2017-06-22T00:58:17.360Z,1007.30
2017-06-22T01:03:13.500Z,1007.32
2017-06-22T01:08:10.067Z,1007.28
2017-06-22T01:13:05.526Z,1007.42
2017-06-22T01:18:02.104Z,1007.35
2017-06-22T01:22:58.028Z,1007.34
2017-06-22T01:27:54.366Z,1007.32
2017-06-22T01:32:50.217Z,1007.23
2017-06-22T01:37:46.508Z,1007.34
2017-06-22T01:42:42.448Z,1007.14
2017-06-22T01:47:39.432Z,1007.10
2017-06-22T01:52:36.406Z,1007.05
2017-06-22T01:57:32.096Z,1006.93
2017-06-22T02:02:27.815Z,1006.97
2017-06-22T02:07:23.548Z,1006.92
2017-06-22T02:12:20.436Z,1006.92
2017-06-22T02:17:16.232Z,1006.95
2017-06-22T02:22:11.883Z,1006.82
2017-06-22T02:27:08.319Z,1006.65
2017-06-22T02:32:04.108Z,1006.72
2017-06-22T02:36:59.901Z,1006.69
2017-06-22T02:41:55.874Z,1006.42
2017-06-22T02:46:52.204Z,1006.52
2017-06-22T02:51:48.146Z,1006.50
2017-06-22T02:56:45.167Z,1006.47
2017-06-22T03:01:41.809Z,1006.36
2017-06-22T03:06:38.525Z,1006.33
2017-06-22T03:11:34.099Z,1006.29
2017-06-22T03:16:30.099Z,1006.37
2017-06-22T03:21:26.016Z,1006.37
2017-06-22T03:26:23.009Z,1006.22
2017-06-22T03:31:18.465Z,1006.19
2017-06-22T03:36:14.717Z,1006.23
2017-06-22T03:41:11.392Z,1006.24
2017-06-22T03:46:08.456Z,1006.15
2017-06-22T03:51:04.821Z,1006.13
2017-06-22T03:56:01.720Z,1006.13
2017-06-22T04:00:57.472Z,1006.15
2017-06-22T04:05:53.536Z,1006.06
2017-06-22T04:10:51.887Z,1006.12
2017-06-22T04:15:48.353Z,1006.13
2017-06-22T04:20:44.156Z,1006.11
2017-06-22T04:25:39.962Z,1006.05
2017-06-22T04:30:36.050Z,1006.00
2017-06-22T04:35:31.870Z,1005.97
2017-06-22T04:40:28.071Z,1005.99
2017-06-22T04:45:25.467Z,1005.90
2017-06-22T04:50:21.496Z,1005.86
2017-06-22T04:55:17.970Z,1005.92
2017-06-22T05:00:14.625Z,1005.76
2017-06-22T05:05:12.135Z,1005.60
2017-06-22T05:10:07.903Z,1005.58
2017-06-22T05:15:03.538Z,1005.50
2017-06-22T05:19:59.311Z,1005.56
2017-06-22T05:24:55.133Z,1005.49
2017-06-22T05:29:50.970Z,1005.48
2017-06-22T05:34:47.515Z,1005.25
2017-06-22T05:39:45.167Z,1005.31
2017-06-22T05:44:41.471Z,1005.19
2017-06-22T05:49:39.002Z,1005.21
2017-06-22T05:54:36.142Z,1005.06
2017-06-22T05:59:32.099Z,1005.01
2017-06-22T06:04:29.828Z,1004.94
2017-06-22T06:09:25.050Z,1004.99
2017-06-22T06:14:20.926Z,1004.80
2017-06-22T06:19:17.186Z,1004.78
2017-06-22T06:24:13.147Z,1004.72
2017-06-22T06:29:08.989Z,1004.79
2017-06-22T06:34:05.967Z,1004.80
2017-06-22T06:39:01.515Z,1004.74
2017-06-22T06:43:57.779Z,1004.77
2017-06-22T06:48:53.891Z,1004.71
2017-06-22T06:53:50.863Z,1004.82
2017-06-22T06:58:47.117Z,1004.72
2017-06-22T07:03:43.415Z,1004.66
2017-06-22T07:08:40.564Z,1004.65
2017-06-22T07:13:36.294Z,1004.63
2017-06-22T07:18:32.395Z,1004.55
2017-06-22T07:23:29.934Z,1004.53
2017-06-22T07:28:26.870Z,1004.51
2017-06-22T07:33:23.028Z,1004.42
2017-06-22T07:38:19.435Z,1004.52
2017-06-22T07:43:15.849Z,1004.48
2017-06-22T07:48:12.466Z,1004.37
2017-06-22T07:53:09.502Z,1004.29
2017-06-22T07:58:08.771Z,1004.19
2017-06-22T08:03:05.312Z,1004.18
2017-06-22T08:08:02.566Z,1004.23
2017-06-22T08:13:00.020Z,1004.21
2017-06-22T08:17:55.650Z,1004.02
2017-06-22T08:22:52.032Z,1004.05
2017-06-22T08:27:50.180Z,1004.00
2017-06-22T08:32:48.665Z,1003.99
2017-06-22T08:37:45.836Z,1003.97
2017-06-22T08:42:42.815Z,1003.88
2017-06-22T08:47:39.551Z,1003.79
2017-06-22T08:52:37.404Z,1003.73
2017-06-22T08:57:33.638Z,1003.73
2017-06-22T09:02:30.500Z,1003.75
2017-06-22T09:07:26.612Z,1003.57
2017-06-22T09:12:22.837Z,1003.59
2017-06-22T09:17:19.410Z,1003.50
2017-06-22T09:22:15.715Z,1003.44
2017-06-22T09:27:12.349Z,1003.51
2017-06-22T09:32:08.669Z,1003.33
2017-06-22T09:37:04.661Z,1003.38
2017-06-22T09:42:00.891Z,1003.30
2017-06-22T09:46:56.972Z,1003.31
2017-06-22T09:51:53.291Z,1003.10
2017-06-22T09:56:49.496Z,1003.26
2017-06-22T10:01:47.940Z,1003.16
2017-06-22T10:06:43.907Z,1003.00
2017-06-22T10:11:38.825Z,1002.98
2017-06-22T10:16:36.297Z,1003.37
2017-06-22T10:21:32.878Z,1003.20
2017-06-22T10:26:29.184Z,1003.09
2017-06-22T10:31:25.846Z,1003.10
2017-06-22T10:36:22.598Z,1003.07
2017-06-22T10:41:19.866Z,1002.92
2017-06-22T10:46:15.643Z,1002.81
2017-06-22T10:51:11.765Z,1002.82
2017-06-22T10:56:07.358Z,1002.75
2017-06-22T11:01:03.835Z,1002.79
2017-06-22T11:06:00.495Z,1002.76
2017-06-22T11:10:57.149Z,1002.80
2017-06-22T11:15:54.053Z,1002.75
2017-06-22T11:20:50.222Z,1002.86
2017-06-22T11:25:46.348Z,1002.80
2017-06-22T11:30:41.944Z,1002.79
2017-06-22T11:35:38.643Z,1002.72
2017-06-22T11:40:35.274Z,1002.61
2017-06-22T11:45:32.046Z,1002.58
2017-06-22T11:50:29.382Z,1002.60
2017-06-22T11:55:26.111Z,1002.51
2017-06-22T12:00:23.077Z,1002.51
2017-06-22T12:05:20.751Z,1002.34
2017-06-22T12:10:17.084Z,1002.44
2017-06-22T12:15:13.448Z,1002.50
2017-06-22T12:20:09.103Z,1002.25
2017-06-22T12:25:05.127Z,1002.33
2017-06-22T12:30:01.106Z,1002.27
2017-06-22T12:34:57.479Z,1002.32
2017-06-22T12:39:53.694Z,1002.11
2017-06-22T12:44:48.638Z,1001.97
2017-06-22T12:49:45.895Z,1001.95
2017-06-22T12:54:41.909Z,1001.94
2017-06-22T12:59:37.925Z,1001.83
2017-06-22T13:04:34.047Z,1001.70
2017-06-22T13:09:29.461Z,1001.57
2017-06-22T13:14:25.611Z,1001.65
2017-06-22T13:19:21.742Z,1001.58
2017-06-22T13:24:18.860Z,1001.40
2017-06-22T13:29:15.366Z,1001.38
2017-06-22T13:34:10.630Z,1001.27
2017-06-22T13:39:07.500Z,1001.15
2017-06-22T13:44:03.039Z,1001.06
2017-06-22T13:48:58.875Z,1001.04
2017-06-22T13:53:54.985Z,1000.88
2017-06-22T13:58:51.764Z,1000.86
2017-06-22T14:03:48.259Z,1000.80
2017-06-22T14:08:44.137Z,1000.81
2017-06-22T14:13:39.345Z,1000.89
2017-06-22T14:18:34.961Z,1000.80
2017-06-22T14:23:30.939Z,1000.95
2017-06-22T14:28:26.665Z,1000.64
2017-06-22T14:33:22.626Z,1000.59
2017-06-22T14:38:18.681Z,1000.51
2017-06-22T14:43:16.057Z,1000.48
2017-06-22T14:48:13.025Z,1000.37
2017-06-22T14:53:09.687Z,1000.44
2017-06-22T14:58:05.393Z,1000.37
2017-06-22T15:03:01.427Z,1000.38
2017-06-22T15:07:57.585Z,1000.32
2017-06-22T15:12:53.431Z,1000.15
2017-06-22T15:17:50.602Z,1000.09
2017-06-22T15:22:46.412Z,999.98
2017-06-22T15:27:42.710Z,1000.02
2017-06-22T15:32:38.861Z,999.92
2017-06-22T15:37:35.769Z,999.78
2017-06-22T15:42:31.755Z,999.70
2017-06-22T15:47:27.754Z,999.84
2017-06-22T15:52:24.616Z,999.82
2017-06-22T15:57:20.099Z,1000.09
2017-06-22T16:02:17.277Z,1000.12
2017-06-22T16:07:13.061Z,1000.15
2017-06-22T16:12:09.492Z,1000.17
2017-06-22T16:17:07.224Z,1000.13
2017-06-22T16:22:02.455Z,1000.16
2017-06-22T16:26:58.401Z,1000.13
2017-06-22T16:31:54.635Z,999.98
2017-06-22T16:36:50.558Z,999.88
2017-06-22T16:41:47.722Z,999.72
2017-06-22T16:46:44.226Z,999.81
2017-06-22T16:51:41.960Z,1000.12
2017-06-22T16:56:38.114Z,1000.18
2017-06-22T17:01:34.123Z,1000.06
2017-06-22T17:06:31.030Z,1000.32
2017-06-22T17:11:27.527Z,1000.30
2017-06-22T17:16:23.254Z,1000.24
2017-06-22T17:21:19.613Z,1000.16
2017-06-22T17:26:16.679Z,1000.38
2017-06-22T17:31:12.351Z,1000.23
2017-06-22T17:36:08.855Z,1000.68
2017-06-22T17:41:04.609Z,1000.60
2017-06-22T17:46:00.442Z,1000.57
2017-06-22T17:50:56.486Z,1000.61
2017-06-22T17:55:52.357Z,1000.60
2017-06-22T18:00:48.339Z,1000.28
2017-06-22T18:05:44.359Z,1000.35
2017-06-22T18:10:42.186Z,1000.55
2017-06-22T18:15:38.814Z,1000.67
2017-06-22T18:20:34.390Z,1000.96
2017-06-22T18:25:31.220Z,1000.49
2017-06-22T18:30:26.979Z,1000.42
2017-06-22T18:35:22.976Z,1001.16
2017-06-22T18:40:18.722Z,1001.65
2017-06-22T18:45:14.157Z,1001.69
2017-06-22T18:50:09.794Z,1001.75
2017-06-22T18:55:06.605Z,1001.84
2017-06-22T19:00:02.253Z,1002.04
2017-06-22T19:04:59.336Z,1002.20
2017-06-22T19:09:55.848Z,1002.23
2017-06-22T19:14:51.336Z,1002.33
2017-06-22T19:19:47.622Z,1002.48
2017-06-22T19:24:43.286Z,1002.51
2017-06-22T19:29:38.904Z,1002.68
2017-06-22T19:34:34.657Z,1002.78
2017-06-22T19:39:31.821Z,1002.86
2017-06-22T19:44:27.310Z,1002.97
2017-06-22T19:49:23.109Z,1003.19
2017-06-22T19:54:19.085Z,1003.25
2017-06-22T19:59:16.631Z,1003.40
2017-06-22T20:04:12.082Z,1003.51
2017-06-22T20:09:07.960Z,1003.53
2017-06-22T20:14:04.689Z,1003.66
2017-06-22T20:19:00.799Z,1003.50
2017-06-22T20:23:56.735Z,1003.55
2017-06-22T20:28:52.468Z,1003.55
2017-06-22T20:33:48.284Z,1003.49
2017-06-22T20:38:44.379Z,1003.56
2017-06-22T20:43:40.302Z,1003.50
2017-06-22T20:48:36.045Z,1003.51
2017-06-22T20:53:32.357Z,1003.60
2017-06-22T20:58:29.272Z,1003.60
2017-06-22T21:03:24.714Z,1003.74
2017-06-22T21:08:20.672Z,1003.78
2017-06-22T21:13:17.601Z,1003.79
2017-06-22T21:18:13.599Z,1003.89
2017-06-22T21:23:09.863Z,1003.99
2017-06-22T21:28:05.844Z,1004.05
2017-06-22T21:33:02.078Z,1004.11
2017-06-22T21:37:57.968Z,1004.08
2017-06-22T21:42:54.199Z,1003.95
2017-06-22T21:47:50.184Z,1004.08
2017-06-22T21:52:47.003Z,1004.13
2017-06-22T21:57:43.203Z,1004.18
2017-06-22T22:02:39.171Z,1004.02
2017-06-22T22:07:35.328Z,1004.26
2017-06-22T22:12:31.206Z,1004.34
2017-06-22T22:17:27.364Z,1004.51
2017-06-22T22:22:23.554Z,1004.48
2017-06-22T22:27:20.387Z,1004.46
2017-06-22T22:32:16.438Z,1004.38
2017-06-22T22:37:12.302Z,1004.38
2017-06-22T22:42:08.621Z,1004.28
2017-06-22T22:47:04.409Z,1004.51
2017-06-22T22:52:00.237Z,1004.50
2017-06-22T22:56:56.096Z,1004.44
2017-06-22T23:01:52.299Z,1004.70
2017-06-22T23:06:49.284Z,1004.68
2017-06-22T23:11:45.994Z,1004.68
2017-06-22T23:16:41.631Z,1004.77
2017-06-22T23:21:37.512Z,1004.82
2017-06-22T23:26:34.400Z,1004.80
2017-06-22T23:31:30.283Z,1004.92
2017-06-22T23:36:26.742Z,1004.90
2017-06-22T23:41:22.853Z,1004.88
2017-06-22T23:46:18.803Z,1004.87
2017-06-22T23:51:15.872Z,1004.86
2017-06-22T23:56:12.357Z,1004.84
